createdAt,value
2022-12-09T00:00:56.533Z,95336.66
2022-12-09T00:03:23.964Z,95334.97
2022-12-09T00:05:50.965Z,95344.53
2022-12-09T00:08:17.667Z,95332.34
2022-12-09T00:10:45.428Z,95327.25
2022-12-09T00:13:12.254Z,95334.31
2022-12-09T00:15:42.661Z,95326.44
2022-12-09T00:18:09.664Z,95326.44
2022-12-09T00:20:36.314Z,95319.91
2022-12-09T00:23:03.110Z,95320.59
2022-12-09T00:25:29.762Z,95312.03
2022-12-09T00:28:05.632Z,95305.97
2022-12-09T00:30:32.264Z,95305.53
2022-12-09T00:32:59.213Z,95304.00
2022-12-09T00:35:25.770Z,95301.81
2022-12-09T00:37:52.417Z,95303.47
2022-12-09T00:40:19.241Z,95304.94
2022-12-09T00:42:45.818Z,95305.22
2022-12-09T00:45:12.311Z,95315.03
2022-12-09T00:47:38.994Z,95316.97
2022-12-09T00:50:06.786Z,95321.78
2022-12-09T00:52:33.763Z,95328.25
2022-12-09T00:55:00.363Z,95333.75
2022-12-09T00:57:27.141Z,95319.13
2022-12-09T00:59:53.689Z,95323.41
2022-12-09T01:02:20.561Z,95319.25
2022-12-09T01:04:49.850Z,95327.41
2022-12-09T01:07:16.399Z,95332.88
2022-12-09T01:09:42.880Z,95335.19
2022-12-09T01:12:09.396Z,95325.94
2022-12-09T01:14:36.053Z,95324.13
2022-12-09T01:17:02.703Z,95321.59
2022-12-09T01:19:29.282Z,95316.91
2022-12-09T01:21:56.076Z,95315.66
2022-12-09T01:24:23.045Z,95322.53
2022-12-09T01:26:49.698Z,95321.97
2022-12-09T01:29:16.255Z,95324.66
2022-12-09T01:31:42.908Z,95316.22
2022-12-09T01:34:09.597Z,95324.34
2022-12-09T01:36:36.217Z,95327.66
2022-12-09T01:39:02.883Z,95319.69
2022-12-09T01:41:29.559Z,95302.69
2022-12-09T01:44:11.159Z,95309.59
2022-12-09T01:46:38.173Z,95318.66
2022-12-09T01:49:06.046Z,95313.44
2022-12-09T01:51:32.852Z,95305.81
2022-12-09T01:53:59.453Z,95310.81
2022-12-09T01:56:29.224Z,95308.28
2022-12-09T01:58:58.049Z,95308.06
2022-12-09T02:01:24.756Z,95314.13
2022-12-09T02:03:51.624Z,95308.06
2022-12-09T02:06:18.540Z,95312.44
2022-12-09T02:08:46.399Z,95314.44
2022-12-09T02:11:31.976Z,95308.38
2022-12-09T02:14:01.538Z,95299.66
2022-12-09T02:16:29.863Z,95295.63
2022-12-09T02:19:15.052Z,95278.81
2022-12-09T02:21:47.970Z,95270.84
2022-12-09T02:24:20.667Z,95267.00
2022-12-09T02:26:53.051Z,95265.66
2022-12-09T02:29:31.852Z,95270.19
2022-12-09T02:32:04.577Z,95270.31
2022-12-09T02:34:33.013Z,95265.91
2022-12-09T02:37:04.939Z,95261.50
2022-12-09T02:39:50.050Z,95267.56
2022-12-09T02:42:17.669Z,95258.34
2022-12-09T02:44:46.714Z,95255.72
2022-12-09T02:47:15.548Z,95254.50
2022-12-09T02:49:43.399Z,95256.16
2022-12-09T02:52:10.405Z,95261.13
2022-12-09T02:54:38.724Z,95252.44
2022-12-09T02:57:08.656Z,95250.66
2022-12-09T02:59:35.148Z,95243.88
2022-12-09T03:02:15.024Z,95233.66
2022-12-09T03:04:45.068Z,95233.38
2022-12-09T03:07:30.257Z,95231.75
2022-12-09T03:10:06.724Z,95239.34
2022-12-09T03:12:34.890Z,95221.41
2022-12-09T03:15:03.889Z,95219.03
2022-12-09T03:17:37.736Z,95210.84
2022-12-09T03:20:07.018Z,95214.88
2022-12-09T03:22:35.583Z,95214.06
2022-12-09T03:25:07.007Z,95210.47
2022-12-09T03:27:54.122Z,95217.78
2022-12-09T03:30:20.661Z,95210.50
2022-12-09T03:32:48.040Z,95205.25
2022-12-09T03:35:17.652Z,95203.31
2022-12-09T03:37:44.849Z,95199.06
2022-12-09T03:40:14.626Z,95198.94
2022-12-09T03:42:49.290Z,95193.25
2022-12-09T03:45:17.621Z,95199.06
2022-12-09T03:47:44.525Z,95207.88
2022-12-09T03:50:12.296Z,95210.22
2022-12-09T03:52:44.297Z,95196.59
2022-12-09T03:55:19.954Z,95196.00
2022-12-09T03:57:48.343Z,95193.66
2022-12-09T04:00:15.657Z,95201.13
2022-12-09T04:02:42.819Z,95207.91
2022-12-09T04:05:09.835Z,95206.97
2022-12-09T04:07:37.102Z,95207.22
2022-12-09T04:10:04.906Z,95206.53
2022-12-09T04:12:32.064Z,95205.56
2022-12-09T04:14:58.683Z,95205.44
2022-12-09T04:17:25.566Z,95203.75
2022-12-09T04:19:52.361Z,95206.69
2022-12-09T04:22:19.077Z,95208.38
2022-12-09T04:24:45.584Z,95219.63
2022-12-09T04:27:12.564Z,95212.38
2022-12-09T04:29:39.888Z,95213.75
2022-12-09T04:32:06.903Z,95220.88
2022-12-09T04:34:33.968Z,95217.03
2022-12-09T04:37:00.986Z,95224.50
2022-12-09T04:39:27.722Z,95226.72
2022-12-09T04:41:54.373Z,95234.59
2022-12-09T04:44:20.942Z,95235.16
2022-12-09T04:46:47.746Z,95235.53
2022-12-09T04:49:14.266Z,95225.91
2022-12-09T04:51:41.017Z,95225.78
2022-12-09T04:54:07.950Z,95225.34
2022-12-09T04:56:34.434Z,95228.13
2022-12-09T04:59:01.161Z,95214.34
2022-12-09T05:01:31.142Z,95223.16
2022-12-09T05:03:58.720Z,95225.91
2022-12-09T05:06:26.116Z,95218.72
2022-12-09T05:08:53.329Z,95222.06
2022-12-09T05:11:20.819Z,95215.00
2022-12-09T05:13:47.921Z,95220.69
2022-12-09T05:16:17.282Z,95214.34
2022-12-09T05:18:44.947Z,95214.22
2022-12-09T05:21:13.141Z,95212.31
2022-12-09T05:23:40.044Z,95212.19
2022-12-09T05:26:08.239Z,95209.41
2022-12-09T05:28:35.100Z,95200.69
2022-12-09T05:31:02.737Z,95197.97
2022-12-09T05:33:30.165Z,95204.75
2022-12-09T05:35:57.393Z,95202.22
2022-12-09T05:38:24.598Z,95196.31
2022-12-09T05:40:51.417Z,95195.34
2022-12-09T05:43:18.884Z,95187.34
2022-12-09T05:45:45.550Z,95191.75
2022-12-09T05:48:12.487Z,95179.34
2022-12-09T05:50:39.437Z,95183.50
2022-12-09T05:53:06.250Z,95180.72
2022-12-09T05:55:32.811Z,95187.66
2022-12-09T05:57:59.703Z,95175.22
2022-12-09T06:00:26.799Z,95176.06
2022-12-09T06:02:53.530Z,95178.69
2022-12-09T06:05:20.220Z,95177.00
2022-12-09T06:07:47.365Z,95171.63
2022-12-09T06:10:14.693Z,95164.59
2022-12-09T06:12:41.748Z,95162.81
2022-12-09T06:15:10.614Z,95160.88
2022-12-09T06:17:38.011Z,95154.09
2022-12-09T06:20:05.457Z,95158.38
2022-12-09T06:22:32.651Z,95149.56
2022-12-09T06:24:59.298Z,95145.13
2022-12-09T06:27:25.876Z,95134.41
2022-12-09T06:29:52.459Z,95139.06
2022-12-09T06:32:19.037Z,95134.22
2022-12-09T06:34:45.832Z,95143.75
2022-12-09T06:37:12.728Z,95137.13
2022-12-09T06:39:39.598Z,95135.34
2022-12-09T06:42:06.324Z,95141.84
2022-12-09T06:44:33.195Z,95137.53
2022-12-09T06:47:00.287Z,95135.34
2022-12-09T06:49:27.691Z,95132.28
2022-12-09T06:51:54.602Z,95132.69
2022-12-09T06:54:21.349Z,95129.53
2022-12-09T06:56:48.452Z,95127.88
2022-12-09T06:59:15.105Z,95131.88
2022-12-09T07:01:41.902Z,95129.97
2022-12-09T07:04:12.685Z,95119.72
2022-12-09T07:06:41.040Z,95130.34
2022-12-09T07:09:12.455Z,95115.84
2022-12-09T07:11:40.465Z,95115.84
2022-12-09T07:14:07.469Z,95110.59
2022-12-09T07:16:35.147Z,95105.94
2022-12-09T07:19:02.266Z,95104.97
2022-12-09T07:21:29.724Z,95104.69
2022-12-09T07:24:00.012Z,95102.91
2022-12-09T07:26:26.898Z,95108.97
2022-12-09T07:28:53.775Z,95100.97
2022-12-09T07:31:22.968Z,95100.69
2022-12-09T07:33:50.244Z,95095.59
2022-12-09T07:36:21.203Z,95089.81
2022-12-09T07:38:48.416Z,95088.56
2022-12-09T07:41:21.077Z,95090.09
2022-12-09T07:43:48.190Z,95083.88
2022-12-09T07:46:15.704Z,95090.63
2022-12-09T07:48:42.522Z,95071.16
2022-12-09T07:51:09.217Z,95075.00
2022-12-09T07:53:36.622Z,95072.53
2022-12-09T07:56:05.288Z,95077.63
2022-12-09T07:58:32.248Z,95076.13
2022-12-09T08:01:04.994Z,95076.41
2022-12-09T08:03:31.927Z,95079.16
2022-12-09T08:05:58.724Z,95085.91
2022-12-09T08:08:25.677Z,95082.06
2022-12-09T08:10:53.244Z,95076.25
2022-12-09T08:13:21.138Z,95078.59
2022-12-09T08:15:48.161Z,95078.56
2022-12-09T08:18:15.000Z,95077.47
2022-12-09T08:20:42.025Z,95073.88
2022-12-09T08:23:09.000Z,95066.97
2022-12-09T08:25:35.965Z,95073.06
2022-12-09T08:28:03.000Z,95067.53
2022-12-09T08:30:29.783Z,95062.78
2022-12-09T08:32:57.241Z,95056.72
2022-12-09T08:35:24.326Z,95066.69
2022-12-09T08:37:50.958Z,95072.78
2022-12-09T08:40:17.936Z,95073.31
2022-12-09T08:42:44.590Z,95072.34
2022-12-09T08:45:11.352Z,95067.81
2022-12-09T08:47:38.139Z,95060.91
2022-12-09T08:50:06.531Z,95058.28
2022-12-09T08:52:38.813Z,95055.09
2022-12-09T08:55:07.747Z,95048.19
2022-12-09T08:57:34.514Z,95043.91
2022-12-09T09:00:01.302Z,95032.44
2022-12-09T09:02:28.275Z,95031.59
2022-12-09T09:04:55.108Z,95035.47
2022-12-09T09:07:22.718Z,95029.91
2022-12-09T09:09:49.673Z,95012.91
2022-12-09T09:12:16.790Z,95012.91
2022-12-09T09:14:43.412Z,95010.94
2022-12-09T09:17:10.220Z,95018.56
2022-12-09T09:19:37.028Z,95012.47
2022-12-09T09:22:04.400Z,94998.91
2022-12-09T09:24:31.993Z,95005.94
2022-12-09T09:26:58.928Z,95013.66
2022-12-09T09:29:25.724Z,95021.28
2022-12-09T09:31:54.710Z,95021.59
2022-12-09T09:34:22.334Z,95018.72
2022-12-09T09:36:49.457Z,95012.81
2022-12-09T09:39:16.769Z,95019.88
2022-12-09T09:41:54.522Z,95003.00
2022-12-09T09:44:24.196Z,94996.69
2022-12-09T09:46:52.493Z,94990.19
2022-12-09T09:49:25.451Z,94976.59
2022-12-09T09:51:52.690Z,94962.88
2022-12-09T09:54:19.446Z,94955.38
2022-12-09T09:56:55.132Z,94969.34
2022-12-09T09:59:25.414Z,94958.75
2022-12-09T10:02:03.280Z,94949.22
2022-12-09T10:04:39.438Z,94938.84
2022-12-09T10:07:44.888Z,94941.88
2022-12-09T10:10:15.047Z,94925.00
2022-12-09T10:13:06.149Z,94931.59
2022-12-09T10:15:39.928Z,94924.38
2022-12-09T10:18:28.001Z,94915.06
2022-12-09T10:20:54.898Z,94905.72
2022-12-09T10:23:22.577Z,94899.03
2022-12-09T10:25:52.865Z,94900.38
2022-12-09T10:28:20.821Z,94900.38
2022-12-09T10:30:48.677Z,94901.50
2022-12-09T10:33:16.717Z,94897.00
2022-12-09T10:35:43.553Z,94896.72
2022-12-09T10:38:12.594Z,94901.28
2022-12-09T10:40:45.958Z,94901.91
2022-12-09T10:43:40.383Z,94893.03
2022-12-09T10:46:33.588Z,94892.19
2022-12-09T10:49:04.094Z,94894.13
2022-12-09T10:51:32.186Z,94885.59
2022-12-09T10:54:01.122Z,94877.88
2022-12-09T10:56:29.792Z,94877.03
2022-12-09T10:59:06.111Z,94871.19
2022-12-09T11:01:47.423Z,94863.13
2022-12-09T11:04:14.255Z,94857.88
2022-12-09T11:06:41.708Z,94854.94
2022-12-09T11:09:19.181Z,94843.84
2022-12-09T11:11:47.438Z,94838.25
2022-12-09T11:14:25.725Z,94836.13
2022-12-09T11:17:12.952Z,94835.22
2022-12-09T11:19:40.879Z,94825.44
2022-12-09T11:22:14.392Z,94821.59
2022-12-09T11:24:41.624Z,94827.00
2022-12-09T11:27:38.157Z,94826.97
2022-12-09T11:30:12.823Z,94829.47
2022-12-09T11:32:55.767Z,94823.66
2022-12-09T11:35:28.803Z,94822.88
2022-12-09T11:37:56.664Z,94824.63
2022-12-09T11:40:23.766Z,94817.41
2022-12-09T11:42:54.065Z,94821.22
2022-12-09T11:45:37.115Z,94806.78
2022-12-09T11:48:29.875Z,94803.56
2022-12-09T11:50:53.237Z,94805.06
2022-12-09T11:53:25.628Z,94797.34
2022-12-09T11:56:07.999Z,94783.06
2022-12-09T11:58:53.320Z,94780.91
2022-12-09T12:01:45.909Z,94782.25
2022-12-09T12:04:15.223Z,94774.09
2022-12-09T12:07:01.869Z,94772.78
2022-12-09T12:09:37.874Z,94770.81
2022-12-09T12:12:04.515Z,94766.56
2022-12-09T12:14:31.633Z,94750.34
2022-12-09T12:17:07.237Z,94742.28
2022-12-09T12:19:35.456Z,94745.09
2022-12-09T12:22:02.032Z,94750.22
2022-12-09T12:24:36.233Z,94743.88
2022-12-09T12:27:28.991Z,94737.44
2022-12-09T12:29:55.506Z,94740.81
2022-12-09T12:32:39.184Z,94733.84
2022-12-09T12:35:18.227Z,94730.66
2022-12-09T12:37:44.794Z,94723.75
2022-12-09T12:40:26.360Z,94717.00
2022-12-09T12:43:30.825Z,94700.56
2022-12-09T12:46:17.704Z,94704.47
2022-12-09T12:49:02.861Z,94699.34
2022-12-09T12:51:54.379Z,94699.34
2022-12-09T12:54:30.498Z,94701.84
2022-12-09T12:57:18.759Z,94686.84
2022-12-09T12:59:54.544Z,94701.34
2022-12-09T13:02:21.106Z,94692.25
2022-12-09T13:04:47.834Z,94688.97
2022-12-09T13:07:27.870Z,94690.94
2022-12-09T13:10:07.941Z,94689.63
2022-12-09T13:12:54.091Z,94685.16
2022-12-09T13:15:41.505Z,94681.22
2022-12-09T13:18:27.359Z,94669.13
2022-12-09T13:20:55.143Z,94651.50
2022-12-09T13:23:48.875Z,94662.22
2022-12-09T13:26:27.383Z,94649.88
2022-12-09T13:28:56.657Z,94650.34
2022-12-09T13:31:28.230Z,94657.09
2022-12-09T13:34:13.398Z,94642.97
2022-12-09T13:36:46.401Z,94654.81
2022-12-09T13:39:13.993Z,94646.91
2022-12-09T13:42:01.153Z,94645.28
2022-12-09T13:44:31.104Z,94636.69
2022-12-09T13:47:24.657Z,94628.94
2022-12-09T13:49:56.995Z,94615.63
2022-12-09T13:52:43.982Z,94623.22
2022-12-09T13:55:23.754Z,94622.59
2022-12-09T13:57:57.216Z,94628.19
2022-12-09T14:00:23.897Z,94634.44
2022-12-09T14:03:06.234Z,94622.94
2022-12-09T14:05:35.981Z,94624.28
2022-12-09T14:08:23.805Z,94620.97
2022-12-09T14:10:52.222Z,94619.00
2022-12-09T14:13:22.679Z,94615.34
2022-12-09T14:16:09.237Z,94618.31
2022-12-09T14:18:35.880Z,94624.22
2022-12-09T14:21:17.769Z,94627.84
2022-12-09T14:24:02.754Z,94620.59
2022-12-09T14:26:36.177Z,94618.81
2022-12-09T14:29:03.315Z,94613.22
2022-12-09T14:31:48.721Z,94619.00
2022-12-09T14:34:38.303Z,94603.50
2022-12-09T14:37:22.763Z,94604.34
2022-12-09T14:40:16.032Z,94601.22
2022-12-09T14:42:42.659Z,94600.09
2022-12-09T14:45:16.582Z,94594.50
2022-12-09T14:47:45.746Z,94585.97
2022-12-09T14:50:15.554Z,94599.63
2022-12-09T14:52:57.640Z,94594.50
2022-12-09T14:55:25.879Z,94588.25
2022-12-09T14:57:53.570Z,94600.25
2022-12-09T15:00:26.511Z,94594.31
2022-12-09T15:03:30.262Z,94588.06
2022-12-09T15:05:40.240Z,94582.16
2022-12-09T15:08:06.821Z,94585.09
2022-12-09T15:10:38.238Z,94585.09
2022-12-09T15:13:05.592Z,94583.59
2022-12-09T15:15:36.818Z,94574.72
2022-12-09T15:18:03.386Z,94573.06
2022-12-09T15:20:37.153Z,94567.34
2022-12-09T15:23:06.085Z,94571.47
2022-12-09T15:25:34.785Z,94571.75
2022-12-09T15:28:03.723Z,94559.75
2022-12-09T15:30:32.045Z,94556.16
2022-12-09T15:32:58.664Z,94549.22
2022-12-09T15:35:27.928Z,94550.88
2022-12-09T15:37:55.902Z,94563.06
2022-12-09T15:40:22.923Z,94550.88
2022-12-09T15:42:52.260Z,94549.22
2022-12-09T15:45:23.959Z,94554.81
2022-12-09T15:47:53.357Z,94549.91
2022-12-09T15:50:22.444Z,94547.97
2022-12-09T15:52:54.431Z,94540.38
2022-12-09T15:55:23.867Z,94532.81
2022-12-09T15:57:51.903Z,94544.97
2022-12-09T16:00:18.995Z,94536.41
2022-12-09T16:02:46.223Z,94517.22
2022-12-09T16:05:13.038Z,94520.47
2022-12-09T16:07:52.060Z,94516.06
2022-12-09T16:10:18.832Z,94516.38
2022-12-09T16:12:45.394Z,94518.00
2022-12-09T16:15:13.665Z,94509.78
2022-12-09T16:17:55.006Z,94513.91
2022-12-09T16:20:34.599Z,94510.47
2022-12-09T16:23:02.834Z,94517.38
2022-12-09T16:25:34.224Z,94505.84
2022-12-09T16:28:02.868Z,94504.06
2022-12-09T16:30:30.827Z,94502.56
2022-12-09T16:32:58.501Z,94503.56
2022-12-09T16:35:28.351Z,94504.53
2022-12-09T16:37:54.906Z,94501.25
2022-12-09T16:40:21.564Z,94503.38
2022-12-09T16:42:49.025Z,94497.97
2022-12-09T16:45:21.703Z,94495.34
2022-12-09T16:47:52.391Z,94493.88
2022-12-09T16:50:18.988Z,94494.69
2022-12-09T16:52:45.600Z,94493.34
2022-12-09T16:55:32.396Z,94492.03
2022-12-09T16:57:59.784Z,94496.97
2022-12-09T17:00:26.578Z,94488.56
2022-12-09T17:02:53.114Z,94473.97
2022-12-09T17:05:19.628Z,94480.19
2022-12-09T17:07:46.282Z,94467.38
2022-12-09T17:10:13.877Z,94457.53
2022-12-09T17:12:40.577Z,94450.63
2022-12-09T17:15:07.424Z,94464.44
2022-12-09T17:17:33.927Z,94468.84
2022-12-09T17:20:00.510Z,94469.69
2022-12-09T17:22:27.147Z,94468.69
2022-12-09T17:24:53.702Z,94471.00
2022-12-09T17:27:20.262Z,94472.78
2022-12-09T17:29:46.830Z,94458.84
2022-12-09T17:32:13.905Z,94450.16
2022-12-09T17:34:40.545Z,94443.41
2022-12-09T17:37:07.488Z,94448.81
2022-12-09T17:39:34.140Z,94443.88
2022-12-09T17:42:01.086Z,94442.91
2022-12-09T17:44:27.807Z,94438.94
2022-12-09T17:46:54.362Z,94446.31
2022-12-09T17:49:21.026Z,94432.53
2022-12-09T17:51:47.625Z,94432.38
2022-12-09T17:54:14.268Z,94431.53
2022-12-09T17:56:40.801Z,94424.13
2022-12-09T17:59:09.276Z,94420.19
2022-12-09T18:01:37.190Z,94419.69
2022-12-09T18:04:11.874Z,94414.91
2022-12-09T18:06:39.804Z,94400.13
2022-12-09T18:09:07.643Z,94403.22
2022-12-09T18:11:34.342Z,94401.59
2022-12-09T18:14:01.398Z,94398.78
2022-12-09T18:16:30.174Z,94402.03
2022-12-09T18:19:00.877Z,94414.00
2022-12-09T18:21:27.385Z,94399.22
2022-12-09T18:23:54.062Z,94395.63
2022-12-09T18:26:22.577Z,94397.78
2022-12-09T18:28:56.143Z,94413.00
2022-12-09T18:31:23.186Z,94409.53
2022-12-09T18:33:49.740Z,94410.72
2022-12-09T18:36:17.633Z,94399.38
2022-12-09T18:38:44.381Z,94395.94
2022-12-09T18:41:14.680Z,94400.34
2022-12-09T18:43:42.461Z,94396.25
2022-12-09T18:46:13.557Z,94391.13
2022-12-09T18:48:40.620Z,94387.69
2022-12-09T18:51:13.838Z,94385.69
2022-12-09T18:53:40.418Z,94393.72
2022-12-09T18:56:07.139Z,94392.44
2022-12-09T18:59:04.262Z,94412.44
2022-12-09T19:01:25.261Z,94422.72
2022-12-09T19:03:54.221Z,94428.94
2022-12-09T19:06:21.116Z,94436.16
2022-12-09T19:08:48.409Z,94443.19
2022-12-09T19:11:14.945Z,94445.00
2022-12-09T19:13:41.551Z,94427.13
2022-12-09T19:16:08.164Z,94434.34
2022-12-09T19:18:34.801Z,94443.06
2022-12-09T19:21:09.190Z,94461.13
2022-12-09T19:23:36.923Z,94458.41
2022-12-09T19:26:03.641Z,94444.28
2022-12-09T19:28:30.228Z,94439.06
2022-12-09T19:30:56.857Z,94422.88
2022-12-09T19:33:23.423Z,94434.88
2022-12-09T19:35:49.994Z,94439.97
2022-12-09T19:38:16.545Z,94435.19
2022-12-09T19:40:43.154Z,94434.72
2022-12-09T19:43:09.707Z,94443.59
2022-12-09T19:45:36.245Z,94446.41
2022-12-09T19:48:02.882Z,94449.31
2022-12-09T19:50:29.432Z,94441.91
2022-12-09T19:52:56.032Z,94428.66
2022-12-09T19:55:22.600Z,94437.84
2022-12-09T19:57:49.109Z,94439.47
2022-12-09T20:00:15.942Z,94445.22
2022-12-09T20:02:42.582Z,94435.69
2022-12-09T20:05:09.221Z,94437.00
2022-12-09T20:07:35.782Z,94438.34
2022-12-09T20:10:02.297Z,94435.88
2022-12-09T20:12:28.871Z,94450.97
2022-12-09T20:14:55.397Z,94447.16
2022-12-09T20:17:22.227Z,94447.47
2022-12-09T20:19:48.836Z,94452.56
2022-12-09T20:22:15.428Z,94450.13
2022-12-09T20:24:43.426Z,94448.34
2022-12-09T20:27:10.207Z,94446.69
2022-12-09T20:29:38.191Z,94446.03
2022-12-09T20:32:05.793Z,94446.53
2022-12-09T20:34:32.392Z,94440.69
2022-12-09T20:36:59.234Z,94447.06
2022-12-09T20:39:25.864Z,94446.38
2022-12-09T20:41:52.517Z,94438.66
2022-12-09T20:44:20.167Z,94442.44
2022-12-09T20:46:48.224Z,94446.75
2022-12-09T20:49:14.987Z,94449.31
2022-12-09T20:51:45.197Z,94437.50
2022-12-09T20:54:12.585Z,94436.16
2022-12-09T20:56:39.321Z,94438.09
2022-12-09T20:59:06.783Z,94432.25
2022-12-09T21:01:34.800Z,94436.66
2022-12-09T21:04:01.823Z,94427.19
2022-12-09T21:06:30.259Z,94430.31
2022-12-09T21:08:59.942Z,94426.09
2022-12-09T21:11:26.921Z,94419.09
2022-12-09T21:13:57.058Z,94421.69
2022-12-09T21:16:25.514Z,94425.16
2022-12-09T21:18:53.037Z,94420.88
2022-12-09T21:21:20.586Z,94414.16
2022-12-09T21:23:47.465Z,94419.22
2022-12-09T21:26:15.357Z,94419.59
2022-12-09T21:28:42.746Z,94417.13
2022-12-09T21:31:10.580Z,94419.41
2022-12-09T21:33:37.822Z,94412.22
2022-12-09T21:36:05.760Z,94406.97
2022-12-09T21:38:32.359Z,94405.97
2022-12-09T21:41:06.508Z,94412.41
2022-12-09T21:43:33.953Z,94416.66
2022-12-09T21:46:11.889Z,94435.72
2022-12-09T21:48:39.121Z,94434.41
2022-12-09T21:51:06.633Z,94437.69
2022-12-09T21:53:33.207Z,94441.00
2022-12-09T21:56:04.276Z,94447.41
2022-12-09T21:58:31.662Z,94458.25
2022-12-09T22:00:58.527Z,94466.78
2022-12-09T22:03:25.636Z,94457.97
2022-12-09T22:05:56.729Z,94469.63
2022-12-09T22:08:24.995Z,94461.91
2022-12-09T22:10:51.606Z,94470.47
2022-12-09T22:13:18.195Z,94465.38
2022-12-09T22:15:44.712Z,94459.28
2022-12-09T22:18:11.246Z,94461.91
2022-12-09T22:21:15.825Z,94469.50
2022-12-09T22:23:24.387Z,94465.84
2022-12-09T22:25:50.950Z,94471.47
2022-12-09T22:28:17.469Z,94475.09
2022-12-09T22:30:44.168Z,94471.63
2022-12-09T22:33:10.750Z,94472.31
2022-12-09T22:35:37.268Z,94470.16
2022-12-09T22:38:10.201Z,94475.75
2022-12-09T22:40:39.544Z,94475.91
2022-12-09T22:43:06.442Z,94485.13
2022-12-09T22:45:35.138Z,94483.13
2022-12-09T22:48:01.804Z,94482.16
2022-12-09T22:50:28.393Z,94487.75
2022-12-09T22:52:55.040Z,94485.13
2022-12-09T22:55:21.624Z,94484.31
2022-12-09T22:57:48.147Z,94486.44
2022-12-09T23:00:14.804Z,94474.13
2022-12-09T23:02:41.543Z,94489.44
2022-12-09T23:05:08.261Z,94486.47
2022-12-09T23:07:35.631Z,94491.69
2022-12-09T23:10:02.448Z,94499.25
2022-12-09T23:12:29.021Z,94498.75
2022-12-09T23:14:55.581Z,94496.59
2022-12-09T23:17:22.142Z,94501.84
2022-12-09T23:19:48.703Z,94512.72
2022-12-09T23:22:15.249Z,94512.53
2022-12-09T23:24:41.785Z,94519.78
2022-12-09T23:27:08.349Z,94521.72
2022-12-09T23:29:34.859Z,94515.97
2022-12-09T23:32:01.407Z,94517.63
2022-12-09T23:34:27.938Z,94515.81
2022-12-09T23:36:55.778Z,94522.34
2022-12-09T23:39:22.352Z,94525.16
2022-12-09T23:41:48.954Z,94542.88
2022-12-09T23:44:16.704Z,94540.25
2022-12-09T23:46:43.296Z,94542.06
2022-12-09T23:49:09.905Z,94549.16
2022-12-09T23:51:38.198Z,94544.88
2022-12-09T23:54:06.036Z,94542.91
2022-12-09T23:56:34.953Z,94547.50
2022-12-09T23:59:03.502Z,94553.75
